sensor_id;sensor_type;location;lat;lon;timestamp;P1;durP1;ratioP1;P2;durP2;ratioP2
22078;SDS011;11206;57.696;11.944;2022-09-28T00:02:00;9.05;;;2.90;;
22078;SDS011;11206;57.696;11.944;2022-09-28T00:04:26;4.15;;;2.25;;
22078;SDS011;11206;57.696;11.944;2022-09-28T00:06:52;5.32;;;2.63;;
22078;SDS011;11206;57.696;11.944;2022-09-28T00:09:21;6.50;;;3.13;;
22078;SDS011;11206;57.696;11.944;2022-09-28T00:11:47;6.43;;;2.50;;
22078;SDS011;11206;57.696;11.944;2022-09-28T00:14:13;10.13;;;3.05;;
22078;SDS011;11206;57.696;11.944;2022-09-28T00:16:41;5.35;;;2.70;;
22078;SDS011;11206;57.696;11.944;2022-09-28T00:19:07;5.30;;;2.55;;
22078;SDS011;11206;57.696;11.944;2022-09-28T00:21:35;5.45;;;3.10;;
22078;SDS011;11206;57.696;11.944;2022-09-28T00:24:02;12.40;;;2.80;;
22078;SDS011;11206;57.696;11.944;2022-09-28T00:26:43;7.20;;;3.30;;
22078;SDS011;11206;57.696;11.944;2022-09-28T00:29:26;6.65;;;3.58;;
22078;SDS011;11206;57.696;11.944;2022-09-28T00:31:56;10.57;;;3.72;;
22078;SDS011;11206;57.696;11.944;2022-09-28T00:34:26;5.70;;;2.85;;
22078;SDS011;11206;57.696;11.944;2022-09-28T00:36:52;6.30;;;2.90;;
22078;SDS011;11206;57.696;11.944;2022-09-28T00:39:18;10.63;;;3.05;;
22078;SDS011;11206;57.696;11.944;2022-09-28T00:41:45;6.43;;;3.20;;
22078;SDS011;11206;57.696;11.944;2022-09-28T00:46:47;8.20;;;4.10;;
22078;SDS011;11206;57.696;11.944;2022-09-28T00:49:14;4.22;;;2.42;;
22078;SDS011;11206;57.696;11.944;2022-09-28T00:51:43;4.90;;;2.50;;
22078;SDS011;11206;57.696;11.944;2022-09-28T00:54:09;8.25;;;3.15;;
22078;SDS011;11206;57.696;11.944;2022-09-28T00:56:36;5.22;;;2.47;;
22078;SDS011;11206;57.696;11.944;2022-09-28T00:59:03;6.38;;;2.70;;
22078;SDS011;11206;57.696;11.944;2022-09-28T01:01:30;8.93;;;2.90;;
22078;SDS011;11206;57.696;11.944;2022-09-28T01:03:59;6.28;;;3.20;;
22078;SDS011;11206;57.696;11.944;2022-09-28T01:06:27;7.40;;;3.35;;
22078;SDS011;11206;57.696;11.944;2022-09-28T01:08:56;7.65;;;2.88;;
22078;SDS011;11206;57.696;11.944;2022-09-28T01:11:23;7.53;;;3.00;;
22078;SDS011;11206;57.696;11.944;2022-09-28T01:13:50;9.23;;;2.35;;
22078;SDS011;11206;57.696;11.944;2022-09-28T01:22:06;8.07;;;2.88;;
22078;SDS011;11206;57.696;11.944;2022-09-28T01:26:55;4.85;;;2.50;;
22078;SDS011;11206;57.696;11.944;2022-09-28T01:29:29;5.32;;;2.58;;
22078;SDS011;11206;57.696;11.944;2022-09-28T01:32:02;7.53;;;2.55;;
22078;SDS011;11206;57.696;11.944;2022-09-28T01:34:32;5.25;;;2.58;;
22078;SDS011;11206;57.696;11.944;2022-09-28T01:37:03;4.95;;;2.42;;
22078;SDS011;11206;57.696;11.944;2022-09-28T01:39:38;7.85;;;2.80;;
22078;SDS011;11206;57.696;11.944;2022-09-28T01:42:08;6.47;;;3.00;;
22078;SDS011;11206;57.696;11.944;2022-09-28T01:44:37;5.50;;;2.90;;
22078;SDS011;11206;57.696;11.944;2022-09-28T01:47:06;5.40;;;2.30;;
22078;SDS011;11206;57.696;11.944;2022-09-28T01:49:35;8.70;;;2.25;;
22078;SDS011;11206;57.696;11.944;2022-09-28T01:52:24;4.78;;;2.47;;
22078;SDS011;11206;57.696;11.944;2022-09-28T01:54:53;5.50;;;2.75;;
22078;SDS011;11206;57.696;11.944;2022-09-28T01:57:23;5.60;;;2.38;;
22078;SDS011;11206;57.696;11.944;2022-09-28T01:59:53;4.65;;;2.30;;
22078;SDS011;11206;57.696;11.944;2022-09-28T02:02:23;4.40;;;2.42;;
22078;SDS011;11206;57.696;11.944;2022-09-28T02:04:52;3.55;;;2.10;;
22078;SDS011;11206;57.696;11.944;2022-09-28T02:07:22;5.60;;;2.55;;
22078;SDS011;11206;57.696;11.944;2022-09-28T02:09:50;4.10;;;2.47;;
22078;SDS011;11206;57.696;11.944;2022-09-28T02:12:21;4.65;;;2.20;;
22078;SDS011;11206;57.696;11.944;2022-09-28T02:14:48;5.60;;;2.70;;
22078;SDS011;11206;57.696;11.944;2022-09-28T02:17:14;5.28;;;2.00;;
22078;SDS011;11206;57.696;11.944;2022-09-28T02:19:40;9.27;;;2.42;;
22078;SDS011;11206;57.696;11.944;2022-09-28T02:22:27;3.20;;;1.70;;
22078;SDS011;11206;57.696;11.944;2022-09-28T02:24:55;3.20;;;1.90;;
22078;SDS011;11206;57.696;11.944;2022-09-28T02:29:49;3.97;;;2.47;;
22078;SDS011;11206;57.696;11.944;2022-09-28T02:32:15;5.00;;;2.13;;
22078;SDS011;11206;57.696;11.944;2022-09-28T02:34:42;7.20;;;2.13;;
22078;SDS011;11206;57.696;11.944;2022-09-28T02:37:08;2.78;;;1.92;;
22078;SDS011;11206;57.696;11.944;2022-09-28T02:39:35;4.85;;;2.08;;
22078;SDS011;11206;57.696;11.944;2022-09-28T02:42:13;3.25;;;1.88;;
22078;SDS011;11206;57.696;11.944;2022-09-28T02:50:14;6.32;;;2.60;;
22078;SDS011;11206;57.696;11.944;2022-09-28T02:58:09;4.70;;;2.47;;
22078;SDS011;11206;57.696;11.944;2022-09-28T03:00:41;6.45;;;2.45;;
22078;SDS011;11206;57.696;11.944;2022-09-28T03:08:34;7.18;;;3.40;;
22078;SDS011;11206;57.696;11.944;2022-09-28T03:11:11;7.15;;;3.17;;
22078;SDS011;11206;57.696;11.944;2022-09-28T03:13:38;6.38;;;2.58;;
22078;SDS011;11206;57.696;11.944;2022-09-28T03:16:12;6.95;;;3.08;;
22078;SDS011;11206;57.696;11.944;2022-09-28T03:18:39;6.72;;;3.22;;
22078;SDS011;11206;57.696;11.944;2022-09-28T03:21:05;7.25;;;3.25;;
22078;SDS011;11206;57.696;11.944;2022-09-28T03:23:31;9.38;;;3.25;;
22078;SDS011;11206;57.696;11.944;2022-09-28T03:25:57;8.27;;;3.10;;
22078;SDS011;11206;57.696;11.944;2022-09-28T03:28:24;8.75;;;3.08;;
22078;SDS011;11206;57.696;11.944;2022-09-28T03:30:51;6.97;;;3.92;;
22078;SDS011;11206;57.696;11.944;2022-09-28T03:33:17;8.77;;;2.95;;
22078;SDS011;11206;57.696;11.944;2022-09-28T03:35:49;5.85;;;3.03;;
22078;SDS011;11206;57.696;11.944;2022-09-28T03:38:18;6.60;;;2.95;;
22078;SDS011;11206;57.696;11.944;2022-09-28T03:40:54;4.25;;;2.80;;
22078;SDS011;11206;57.696;11.944;2022-09-28T03:43:21;8.25;;;4.00;;
22078;SDS011;11206;57.696;11.944;2022-09-28T03:45:55;9.05;;;3.33;;
22078;SDS011;11206;57.696;11.944;2022-09-28T03:48:25;7.13;;;3.13;;
22078;SDS011;11206;57.696;11.944;2022-09-28T03:50:55;9.02;;;3.78;;
22078;SDS011;11206;57.696;11.944;2022-09-28T03:53:21;8.05;;;3.55;;
22078;SDS011;11206;57.696;11.944;2022-09-28T03:55:47;11.18;;;3.92;;
22078;SDS011;11206;57.696;11.944;2022-09-28T03:58:15;9.10;;;3.60;;
22078;SDS011;11206;57.696;11.944;2022-09-28T04:00:41;10.13;;;3.72;;
22078;SDS011;11206;57.696;11.944;2022-09-28T04:03:07;7.93;;;4.00;;
22078;SDS011;11206;57.696;11.944;2022-09-28T04:05:33;8.77;;;4.47;;
22078;SDS011;11206;57.696;11.944;2022-09-28T04:07:59;7.68;;;3.67;;
22078;SDS011;11206;57.696;11.944;2022-09-28T04:10:25;6.70;;;3.65;;
22078;SDS011;11206;57.696;11.944;2022-09-28T04:12:58;7.03;;;3.85;;
22078;SDS011;11206;57.696;11.944;2022-09-28T04:15:24;9.43;;;3.58;;
22078;SDS011;11206;57.696;11.944;2022-09-28T04:17:50;10.23;;;4.00;;
22078;SDS011;11206;57.696;11.944;2022-09-28T04:20:16;7.45;;;3.55;;
22078;SDS011;11206;57.696;11.944;2022-09-28T04:22:42;8.07;;;3.63;;
22078;SDS011;11206;57.696;11.944;2022-09-28T04:25:08;6.10;;;3.47;;
22078;SDS011;11206;57.696;11.944;2022-09-28T04:27:35;7.90;;;3.30;;
22078;SDS011;11206;57.696;11.944;2022-09-28T04:30:19;9.82;;;3.80;;
22078;SDS011;11206;57.696;11.944;2022-09-28T04:32:46;7.97;;;3.58;;
22078;SDS011;11206;57.696;11.944;2022-09-28T04:35:12;10.55;;;4.55;;
22078;SDS011;11206;57.696;11.944;2022-09-28T04:37:38;9.05;;;3.58;;
22078;SDS011;11206;57.696;11.944;2022-09-28T04:40:05;9.93;;;3.65;;
22078;SDS011;11206;57.696;11.944;2022-09-28T04:42:31;8.07;;;3.83;;
22078;SDS011;11206;57.696;11.944;2022-09-28T04:44:57;8.93;;;3.70;;
22078;SDS011;11206;57.696;11.944;2022-09-28T04:47:24;12.38;;;3.85;;
22078;SDS011;11206;57.696;11.944;2022-09-28T04:49:51;8.73;;;3.58;;
22078;SDS011;11206;57.696;11.944;2022-09-28T04:52:17;8.15;;;3.53;;
22078;SDS011;11206;57.696;11.944;2022-09-28T04:54:43;6.57;;;3.60;;
22078;SDS011;11206;57.696;11.944;2022-09-28T04:57:09;7.95;;;3.75;;
22078;SDS011;11206;57.696;11.944;2022-09-28T04:59:35;12.00;;;3.85;;
22078;SDS011;11206;57.696;11.944;2022-09-28T05:02:02;8.25;;;4.13;;
22078;SDS011;11206;57.696;11.944;2022-09-28T05:04:28;12.52;;;4.40;;
22078;SDS011;11206;57.696;11.944;2022-09-28T05:06:55;9.95;;;4.03;;
22078;SDS011;11206;57.696;11.944;2022-09-28T05:09:21;10.85;;;3.85;;
22078;SDS011;11206;57.696;11.944;2022-09-28T05:11:48;7.95;;;3.97;;
22078;SDS011;11206;57.696;11.944;2022-09-28T05:14:15;7.93;;;4.45;;
22078;SDS011;11206;57.696;11.944;2022-09-28T05:16:41;12.55;;;4.22;;
22078;SDS011;11206;57.696;11.944;2022-09-28T05:19:07;9.55;;;3.92;;
22078;SDS011;11206;57.696;11.944;2022-09-28T05:21:33;8.95;;;3.97;;
22078;SDS011;11206;57.696;11.944;2022-09-28T05:23:59;8.38;;;4.18;;
22078;SDS011;11206;57.696;11.944;2022-09-28T05:26:29;7.43;;;3.65;;
22078;SDS011;11206;57.696;11.944;2022-09-28T05:28:55;8.00;;;4.13;;
22078;SDS011;11206;57.696;11.944;2022-09-28T05:31:21;10.60;;;4.45;;
22078;SDS011;11206;57.696;11.944;2022-09-28T05:33:47;8.13;;;3.60;;
22078;SDS011;11206;57.696;11.944;2022-09-28T05:36:14;13.70;;;3.60;;
22078;SDS011;11206;57.696;11.944;2022-09-28T05:38:40;8.13;;;3.78;;
22078;SDS011;11206;57.696;11.944;2022-09-28T05:41:08;7.30;;;3.25;;
22078;SDS011;11206;57.696;11.944;2022-09-28T05:43:34;8.57;;;3.92;;
22078;SDS011;11206;57.696;11.944;2022-09-28T05:46:00;12.05;;;3.83;;
22078;SDS011;11206;57.696;11.944;2022-09-28T05:48:26;8.70;;;4.32;;
22078;SDS011;11206;57.696;11.944;2022-09-28T05:50:52;7.80;;;3.78;;
22078;SDS011;11206;57.696;11.944;2022-09-28T05:53:19;7.05;;;3.40;;
22078;SDS011;11206;57.696;11.944;2022-09-28T05:55:46;6.60;;;3.95;;
22078;SDS011;11206;57.696;11.944;2022-09-28T05:58:12;8.50;;;3.35;;
22078;SDS011;11206;57.696;11.944;2022-09-28T06:00:38;9.73;;;3.78;;
22078;SDS011;11206;57.696;11.944;2022-09-28T06:03:05;8.20;;;2.85;;
22078;SDS011;11206;57.696;11.944;2022-09-28T06:05:35;8.50;;;3.88;;
22078;SDS011;11206;57.696;11.944;2022-09-28T06:08:01;7.07;;;3.67;;
22078;SDS011;11206;57.696;11.944;2022-09-28T06:10:29;10.20;;;4.68;;
22078;SDS011;11206;57.696;11.944;2022-09-28T06:12:55;7.35;;;3.70;;
22078;SDS011;11206;57.696;11.944;2022-09-28T06:15:24;7.80;;;3.72;;
22078;SDS011;11206;57.696;11.944;2022-09-28T06:18:02;9.77;;;3.60;;
22078;SDS011;11206;57.696;11.944;2022-09-28T06:20:29;8.43;;;3.47;;
22078;SDS011;11206;57.696;11.944;2022-09-28T06:22:56;9.00;;;4.15;;
22078;SDS011;11206;57.696;11.944;2022-09-28T06:25:22;16.27;;;3.60;;
22078;SDS011;11206;57.696;11.944;2022-09-28T06:27:52;10.60;;;3.35;;
22078;SDS011;11206;57.696;11.944;2022-09-28T06:30:19;7.18;;;3.63;;
22078;SDS011;11206;57.696;11.944;2022-09-28T06:32:45;5.25;;;3.08;;
22078;SDS011;11206;57.696;11.944;2022-09-28T06:35:11;9.80;;;3.72;;
22078;SDS011;11206;57.696;11.944;2022-09-28T06:37:42;8.55;;;3.75;;
22078;SDS011;11206;57.696;11.944;2022-09-28T06:40:09;9.32;;;3.47;;
22078;SDS011;11206;57.696;11.944;2022-09-28T06:42:35;11.10;;;4.40;;
22078;SDS011;11206;57.696;11.944;2022-09-28T06:45:01;9.88;;;4.50;;
22078;SDS011;11206;57.696;11.944;2022-09-28T06:47:28;7.55;;;3.17;;
22078;SDS011;11206;57.696;11.944;2022-09-28T06:49:57;6.85;;;2.85;;
22078;SDS011;11206;57.696;11.944;2022-09-28T06:52:48;6.63;;;3.47;;
22078;SDS011;11206;57.696;11.944;2022-09-28T06:58:28;15.85;;;4.35;;
22078;SDS011;11206;57.696;11.944;2022-09-28T07:00:55;9.93;;;3.90;;
22078;SDS011;11206;57.696;11.944;2022-09-28T07:03:39;8.20;;;3.65;;
22078;SDS011;11206;57.696;11.944;2022-09-28T07:06:05;7.80;;;3.90;;
22078;SDS011;11206;57.696;11.944;2022-09-28T07:08:48;7.95;;;3.13;;
22078;SDS011;11206;57.696;11.944;2022-09-28T07:11:18;8.65;;;3.50;;
22078;SDS011;11206;57.696;11.944;2022-09-28T07:14:01;7.50;;;4.10;;
22078;SDS011;11206;57.696;11.944;2022-09-28T07:16:29;9.20;;;4.07;;
22078;SDS011;11206;57.696;11.944;2022-09-28T07:19:19;9.73;;;4.20;;
22078;SDS011;11206;57.696;11.944;2022-09-28T07:22:04;9.05;;;4.00;;
22078;SDS011;11206;57.696;11.944;2022-09-28T07:24:33;9.05;;;4.43;;
22078;SDS011;11206;57.696;11.944;2022-09-28T07:26:59;9.75;;;4.32;;
22078;SDS011;11206;57.696;11.944;2022-09-28T07:29:29;11.02;;;3.88;;
22078;SDS011;11206;57.696;11.944;2022-09-28T07:31:55;8.55;;;4.22;;
22078;SDS011;11206;57.696;11.944;2022-09-28T07:34:22;8.30;;;4.22;;
22078;SDS011;11206;57.696;11.944;2022-09-28T07:36:49;10.02;;;3.90;;
22078;SDS011;11206;57.696;11.944;2022-09-28T07:39:37;10.45;;;4.88;;
22078;SDS011;11206;57.696;11.944;2022-09-28T07:42:22;8.88;;;3.90;;
22078;SDS011;11206;57.696;11.944;2022-09-28T07:44:49;8.82;;;3.78;;
22078;SDS011;11206;57.696;11.944;2022-09-28T07:47:16;8.93;;;4.05;;
22078;SDS011;11206;57.696;11.944;2022-09-28T07:49:43;6.95;;;3.78;;
22078;SDS011;11206;57.696;11.944;2022-09-28T07:52:10;6.70;;;3.22;;
22078;SDS011;11206;57.696;11.944;2022-09-28T07:54:59;7.13;;;3.47;;
22078;SDS011;11206;57.696;11.944;2022-09-28T07:57:27;9.23;;;4.70;;
22078;SDS011;11206;57.696;11.944;2022-09-28T07:59:55;7.68;;;3.40;;
22078;SDS011;11206;57.696;11.944;2022-09-28T08:02:24;9.90;;;4.13;;
22078;SDS011;11206;57.696;11.944;2022-09-28T08:04:51;7.40;;;3.90;;
22078;SDS011;11206;57.696;11.944;2022-09-28T08:07:37;8.25;;;3.58;;
22078;SDS011;11206;57.696;11.944;2022-09-28T08:10:08;7.95;;;3.72;;
22078;SDS011;11206;57.696;11.944;2022-09-28T08:13:10;10.07;;;3.83;;
22078;SDS011;11206;57.696;11.944;2022-09-28T08:15:36;7.45;;;4.05;;
22078;SDS011;11206;57.696;11.944;2022-09-28T08:18:03;8.32;;;3.72;;
22078;SDS011;11206;57.696;11.944;2022-09-28T08:20:31;7.70;;;3.80;;
22078;SDS011;11206;57.696;11.944;2022-09-28T08:26:02;12.88;;;4.25;;
22078;SDS011;11206;57.696;11.944;2022-09-28T08:28:28;9.05;;;4.03;;
22078;SDS011;11206;57.696;11.944;2022-09-28T08:30:57;8.70;;;3.72;;
22078;SDS011;11206;57.696;11.944;2022-09-28T08:33:23;9.35;;;3.92;;
22078;SDS011;11206;57.696;11.944;2022-09-28T08:35:56;8.55;;;4.47;;
22078;SDS011;11206;57.696;11.944;2022-09-28T08:38:26;8.02;;;3.78;;
22078;SDS011;11206;57.696;11.944;2022-09-28T08:46:18;8.18;;;4.20;;
22078;SDS011;11206;57.696;11.944;2022-09-28T08:48:53;8.48;;;3.55;;
22078;SDS011;11206;57.696;11.944;2022-09-28T08:51:26;8.70;;;3.78;;
22078;SDS011;11206;57.696;11.944;2022-09-28T08:57:00;8.32;;;3.40;;
22078;SDS011;11206;57.696;11.944;2022-09-28T08:59:38;5.50;;;3.28;;
22078;SDS011;11206;57.696;11.944;2022-09-28T09:02:10;10.40;;;3.97;;
22078;SDS011;11206;57.696;11.944;2022-09-28T09:04:38;7.78;;;3.30;;
22078;SDS011;11206;57.696;11.944;2022-09-28T09:13:01;5.30;;;2.60;;
22078;SDS011;11206;57.696;11.944;2022-09-28T09:15:24;5.13;;;2.75;;
22078;SDS011;11206;57.696;11.944;2022-09-28T09:30:37;9.73;;;3.20;;
22078;SDS011;11206;57.696;11.944;2022-09-28T09:33:16;5.43;;;2.88;;
22078;SDS011;11206;57.696;11.944;2022-09-28T09:36:09;6.15;;;2.92;;
22078;SDS011;11206;57.696;11.944;2022-09-28T09:38:47;6.75;;;2.50;;
22078;SDS011;11206;57.696;11.944;2022-09-28T09:43:55;6.25;;;2.88;;
22078;SDS011;11206;57.696;11.944;2022-09-28T09:49:08;5.82;;;2.90;;
22078;SDS011;11206;57.696;11.944;2022-09-28T09:52:23;4.53;;;2.10;;
22078;SDS011;11206;57.696;11.944;2022-09-28T09:54:32;5.82;;;2.70;;
22078;SDS011;11206;57.696;11.944;2022-09-28T09:57:05;5.57;;;2.67;;
22078;SDS011;11206;57.696;11.944;2022-09-28T09:59:33;4.82;;;2.40;;
22078;SDS011;11206;57.696;11.944;2022-09-28T10:02:06;5.65;;;2.20;;
22078;SDS011;11206;57.696;11.944;2022-09-28T10:04:36;4.93;;;2.75;;
22078;SDS011;11206;57.696;11.944;2022-09-28T10:07:04;5.55;;;2.55;;
22078;SDS011;11206;57.696;11.944;2022-09-28T10:09:35;8.23;;;2.90;;
22078;SDS011;11206;57.696;11.944;2022-09-28T10:12:02;8.73;;;3.00;;
22078;SDS011;11206;57.696;11.944;2022-09-28T10:14:28;5.03;;;2.72;;
22078;SDS011;11206;57.696;11.944;2022-09-28T10:16:55;6.88;;;2.28;;
22078;SDS011;11206;57.696;11.944;2022-09-28T10:19:32;5.88;;;2.33;;
22078;SDS011;11206;57.696;11.944;2022-09-28T10:21:59;6.55;;;3.03;;
22078;SDS011;11206;57.696;11.944;2022-09-28T10:26:54;7.32;;;2.80;;
22078;SDS011;11206;57.696;11.944;2022-09-28T10:29:23;7.78;;;2.13;;
22078;SDS011;11206;57.696;11.944;2022-09-28T10:31:50;5.25;;;2.20;;
22078;SDS011;11206;57.696;11.944;2022-09-28T10:34:24;3.38;;;1.88;;
22078;SDS011;11206;57.696;11.944;2022-09-28T10:36:51;8.77;;;2.55;;
22078;SDS011;11206;57.696;11.944;2022-09-28T10:39:30;6.47;;;2.75;;
22078;SDS011;11206;57.696;11.944;2022-09-28T10:42:05;6.78;;;2.50;;
22078;SDS011;11206;57.696;11.944;2022-09-28T10:44:32;4.50;;;2.42;;
22078;SDS011;11206;57.696;11.944;2022-09-28T10:46:59;6.28;;;2.25;;
22078;SDS011;11206;57.696;11.944;2022-09-28T10:49:26;5.68;;;2.58;;
22078;SDS011;11206;57.696;11.944;2022-09-28T10:51:53;7.18;;;3.03;;
22078;SDS011;11206;57.696;11.944;2022-09-28T10:54:27;5.60;;;2.53;;
22078;SDS011;11206;57.696;11.944;2022-09-28T10:56:54;9.00;;;3.10;;
22078;SDS011;11206;57.696;11.944;2022-09-28T11:02:29;4.70;;;2.90;;
22078;SDS011;11206;57.696;11.944;2022-09-28T11:04:49;4.50;;;2.15;;
22078;SDS011;11206;57.696;11.944;2022-09-28T11:07:20;10.90;;;3.33;;
22078;SDS011;11206;57.696;11.944;2022-09-28T11:09:48;6.20;;;2.53;;
22078;SDS011;11206;57.696;11.944;2022-09-28T11:12:25;5.15;;;2.03;;
22078;SDS011;11206;57.696;11.944;2022-09-28T11:14:58;4.13;;;2.17;;
22078;SDS011;11206;57.696;11.944;2022-09-28T11:17:37;6.43;;;2.20;;
22078;SDS011;11206;57.696;11.944;2022-09-28T11:32:53;8.13;;;1.98;;
22078;SDS011;11206;57.696;11.944;2022-09-28T11:35:23;7.65;;;2.28;;
22078;SDS011;11206;57.696;11.944;2022-09-28T11:40:34;5.22;;;2.20;;
22078;SDS011;11206;57.696;11.944;2022-09-28T11:48:05;6.40;;;2.03;;
22078;SDS011;11206;57.696;11.944;2022-09-28T11:55:51;4.57;;;1.88;;
22078;SDS011;11206;57.696;11.944;2022-09-28T11:58:39;7.75;;;2.50;;
22078;SDS011;11206;57.696;11.944;2022-09-28T12:03:47;4.72;;;1.92;;
22078;SDS011;11206;57.696;11.944;2022-09-28T12:06:17;5.05;;;2.42;;
22078;SDS011;11206;57.696;11.944;2022-09-28T12:08:52;4.00;;;1.90;;
22078;SDS011;11206;57.696;11.944;2022-09-28T12:11:24;5.00;;;2.40;;
22078;SDS011;11206;57.696;11.944;2022-09-28T12:13:56;6.22;;;1.80;;
22078;SDS011;11206;57.696;11.944;2022-09-28T12:29:31;3.33;;;1.80;;
22078;SDS011;11206;57.696;11.944;2022-09-28T12:34:39;2.70;;;1.65;;
22078;SDS011;11206;57.696;11.944;2022-09-28T12:37:13;7.20;;;1.95;;
22078;SDS011;11206;57.696;11.944;2022-09-28T12:39:46;1.90;;;1.27;;
22078;SDS011;11206;57.696;11.944;2022-09-28T12:49:56;3.47;;;1.85;;
22078;SDS011;11206;57.696;11.944;2022-09-28T12:52:27;5.20;;;1.70;;
22078;SDS011;11206;57.696;11.944;2022-09-28T13:00:07;6.32;;;1.73;;
22078;SDS011;11206;57.696;11.944;2022-09-28T13:08:12;2.55;;;1.30;;
22078;SDS011;11206;57.696;11.944;2022-09-28T13:15:43;5.60;;;1.67;;
22078;SDS011;11206;57.696;11.944;2022-09-28T13:18:27;2.80;;;1.67;;
22078;SDS011;11206;57.696;11.944;2022-09-28T13:23:25;5.00;;;1.30;;
22078;SDS011;11206;57.696;11.944;2022-09-28T13:25:56;2.92;;;1.38;;
22078;SDS011;11206;57.696;11.944;2022-09-28T13:28:24;3.30;;;1.13;;
22078;SDS011;11206;57.696;11.944;2022-09-28T13:30:51;2.97;;;1.38;;
22078;SDS011;11206;57.696;11.944;2022-09-28T13:33:39;2.38;;;1.25;;
22078;SDS011;11206;57.696;11.944;2022-09-28T13:38:50;2.45;;;1.42;;
22078;SDS011;11206;57.696;11.944;2022-09-28T13:41:24;4.75;;;1.38;;
22078;SDS011;11206;57.696;11.944;2022-09-28T13:44:02;1.48;;;1.08;;
22078;SDS011;11206;57.696;11.944;2022-09-28T13:57:40;4.53;;;1.38;;
22078;SDS011;11206;57.696;11.944;2022-09-28T14:02:57;2.80;;;1.33;;
22078;SDS011;11206;57.696;11.944;2022-09-28T14:13:09;3.08;;;1.48;;
22078;SDS011;11206;57.696;11.944;2022-09-28T14:20:58;2.63;;;1.25;;
22078;SDS011;11206;57.696;11.944;2022-09-28T14:26:02;4.47;;;1.50;;
22078;SDS011;11206;57.696;11.944;2022-09-28T14:28:46;3.53;;;1.30;;
22078;SDS011;11206;57.696;11.944;2022-09-28T14:31:25;2.38;;;1.50;;
22078;SDS011;11206;57.696;11.944;2022-09-28T14:33:56;4.43;;;1.40;;
22078;SDS011;11206;57.696;11.944;2022-09-28T14:36:41;3.63;;;1.40;;
22078;SDS011;11206;57.696;11.944;2022-09-28T14:39:27;2.67;;;1.25;;
22078;SDS011;11206;57.696;11.944;2022-09-28T14:42:23;6.72;;;1.67;;
22078;SDS011;11206;57.696;11.944;2022-09-28T14:50:19;2.58;;;1.20;;
22078;SDS011;11206;57.696;11.944;2022-09-28T14:52:49;3.42;;;1.50;;
22078;SDS011;11206;57.696;11.944;2022-09-28T14:55:16;4.72;;;1.42;;
22078;SDS011;11206;57.696;11.944;2022-09-28T14:57:43;4.82;;;1.70;;
22078;SDS011;11206;57.696;11.944;2022-09-28T15:00:19;8.48;;;1.67;;
22078;SDS011;11206;57.696;11.944;2022-09-28T15:02:47;2.20;;;1.20;;
22078;SDS011;11206;57.696;11.944;2022-09-28T15:05:17;4.95;;;1.40;;
22078;SDS011;11206;57.696;11.944;2022-09-28T15:07:47;3.28;;;1.30;;
22078;SDS011;11206;57.696;11.944;2022-09-28T15:10:28;1.95;;;0.73;;
22078;SDS011;11206;57.696;11.944;2022-09-28T15:12:58;1.98;;;1.10;;
22078;SDS011;11206;57.696;11.944;2022-09-28T15:20:38;2.10;;;1.20;;
22078;SDS011;11206;57.696;11.944;2022-09-28T15:25:51;2.03;;;0.93;;
22078;SDS011;11206;57.696;11.944;2022-09-28T15:28:18;3.92;;;1.25;;
22078;SDS011;11206;57.696;11.944;2022-09-28T15:30:46;3.85;;;1.10;;
22078;SDS011;11206;57.696;11.944;2022-09-28T15:33:26;3.03;;;1.08;;
22078;SDS011;11206;57.696;11.944;2022-09-28T15:36:13;1.70;;;1.00;;
22078;SDS011;11206;57.696;11.944;2022-09-28T15:38:40;6.60;;;1.00;;
22078;SDS011;11206;57.696;11.944;2022-09-28T15:41:07;1.13;;;0.82;;
22078;SDS011;11206;57.696;11.944;2022-09-28T15:43:35;4.38;;;1.40;;
22078;SDS011;11206;57.696;11.944;2022-09-28T15:46:06;1.75;;;1.00;;
22078;SDS011;11206;57.696;11.944;2022-09-28T15:51:08;6.95;;;1.00;;
22078;SDS011;11206;57.696;11.944;2022-09-28T15:56:07;2.22;;;1.00;;
22078;SDS011;11206;57.696;11.944;2022-09-28T15:58:34;5.55;;;1.10;;
22078;SDS011;11206;57.696;11.944;2022-09-28T16:01:19;3.00;;;0.90;;
22078;SDS011;11206;57.696;11.944;2022-09-28T16:03:46;1.10;;;0.63;;
22078;SDS011;11206;57.696;11.944;2022-09-28T16:06:12;0.85;;;0.68;;
22078;SDS011;11206;57.696;11.944;2022-09-28T16:08:42;1.67;;;0.68;;
22078;SDS011;11206;57.696;11.944;2022-09-28T16:16:27;1.45;;;0.80;;
22078;SDS011;11206;57.696;11.944;2022-09-28T16:18:53;2.08;;;1.05;;
22078;SDS011;11206;57.696;11.944;2022-09-28T16:23:51;7.75;;;1.40;;
22078;SDS011;11206;57.696;11.944;2022-09-28T16:26:35;2.08;;;0.98;;
22078;SDS011;11206;57.696;11.944;2022-09-28T16:29:08;1.15;;;0.75;;
22078;SDS011;11206;57.696;11.944;2022-09-28T16:31:49;2.03;;;0.85;;
22078;SDS011;11206;57.696;11.944;2022-09-28T16:34:22;4.80;;;1.38;;
22078;SDS011;11206;57.696;11.944;2022-09-28T16:36:49;2.90;;;0.90;;
22078;SDS011;11206;57.696;11.944;2022-09-28T16:39:16;3.60;;;0.90;;
22078;SDS011;11206;57.696;11.944;2022-09-28T16:42:01;1.58;;;0.90;;
22078;SDS011;11206;57.696;11.944;2022-09-28T16:44:31;2.03;;;0.82;;
22078;SDS011;11206;57.696;11.944;2022-09-28T16:47:00;1.27;;;0.90;;
22078;SDS011;11206;57.696;11.944;2022-09-28T16:49:30;2.22;;;0.75;;
22078;SDS011;11206;57.696;11.944;2022-09-28T16:51:56;8.23;;;1.10;;
22078;SDS011;11206;57.696;11.944;2022-09-28T16:54:24;3.28;;;1.17;;
22078;SDS011;11206;57.696;11.944;2022-09-28T16:57:10;3.75;;;0.90;;
22078;SDS011;11206;57.696;11.944;2022-09-28T16:59:37;3.88;;;0.70;;
22078;SDS011;11206;57.696;11.944;2022-09-28T17:02:16;3.70;;;0.85;;
22078;SDS011;11206;57.696;11.944;2022-09-28T17:04:44;4.40;;;0.98;;
22078;SDS011;11206;57.696;11.944;2022-09-28T17:07:10;2.05;;;0.70;;
22078;SDS011;11206;57.696;11.944;2022-09-28T17:09:38;1.77;;;0.90;;
22078;SDS011;11206;57.696;11.944;2022-09-28T17:12:12;2.65;;;1.17;;
22078;SDS011;11206;57.696;11.944;2022-09-28T17:14:39;2.50;;;0.70;;
22078;SDS011;11206;57.696;11.944;2022-09-28T17:17:07;2.28;;;1.00;;
22078;SDS011;11206;57.696;11.944;2022-09-28T17:19:33;4.22;;;1.00;;
22078;SDS011;11206;57.696;11.944;2022-09-28T17:21:59;1.48;;;0.82;;
22078;SDS011;11206;57.696;11.944;2022-09-28T17:24:25;5.13;;;0.80;;
22078;SDS011;11206;57.696;11.944;2022-09-28T17:26:51;3.00;;;0.77;;
22078;SDS011;11206;57.696;11.944;2022-09-28T17:29:18;4.18;;;0.98;;
22078;SDS011;11206;57.696;11.944;2022-09-28T17:31:44;3.47;;;1.35;;
22078;SDS011;11206;57.696;11.944;2022-09-28T17:34:11;2.25;;;0.75;;
22078;SDS011;11206;57.696;11.944;2022-09-28T17:36:40;2.35;;;0.73;;
22078;SDS011;11206;57.696;11.944;2022-09-28T17:39:09;1.17;;;0.70;;
22078;SDS011;11206;57.696;11.944;2022-09-28T17:41:35;3.25;;;0.85;;
22078;SDS011;11206;57.696;11.944;2022-09-28T17:44:02;4.82;;;0.82;;
22078;SDS011;11206;57.696;11.944;2022-09-28T17:46:29;1.42;;;0.70;;
22078;SDS011;11206;57.696;11.944;2022-09-28T17:48:56;4.47;;;1.00;;
22078;SDS011;11206;57.696;11.944;2022-09-28T17:51:24;0.63;;;0.50;;
22078;SDS011;11206;57.696;11.944;2022-09-28T17:53:50;3.65;;;0.80;;
22078;SDS011;11206;57.696;11.944;2022-09-28T17:56:18;13.10;;;1.23;;
22078;SDS011;11206;57.696;11.944;2022-09-28T17:58:44;4.20;;;1.08;;
22078;SDS011;11206;57.696;11.944;2022-09-28T18:01:12;5.10;;;1.17;;
22078;SDS011;11206;57.696;11.944;2022-09-28T18:03:39;1.77;;;0.70;;
22078;SDS011;11206;57.696;11.944;2022-09-28T18:06:07;3.15;;;0.88;;
22078;SDS011;11206;57.696;11.944;2022-09-28T18:08:37;0.95;;;0.60;;
22078;SDS011;11206;57.696;11.944;2022-09-28T18:11:04;5.65;;;0.73;;
22078;SDS011;11206;57.696;11.944;2022-09-28T18:13:30;1.15;;;0.77;;